Time;durP1;ratioP1;P1;durP2;ratioP2;P2;SDS_P1;SDS_P2;PMS_P1;PMS_P2;Temp;Humidity;BMP_temperature;BMP_pressure;BME280_temperature;BME280_humidity;BME280_pressure;Samples;Min_cycle;Max_cycle;Signal;HPM_P1;HPM_P2
2023/01/01 00:00:16;;;;;;;83.40;63.83;;;;;;;6.09;100.00;101924.00;5011372;28;20061;-87
2023/01/01 00:02:41;;;;;;;89.00;65.55;;;;;;;6.46;100.00;102007.25;5009155;28;20045;-87
2023/01/01 00:05:07;;;;;;;68.70;44.97;;;;;;;6.17;100.00;101969.50;5007844;28;20042;-88
2023/01/01 00:07:32;;;;;;;91.32;68.88;;;;;;;6.30;100.00;102017.84;5007240;28;20121;-86
2023/01/01 00:12:42;;;;;;;82.80;59.90;;;;;;;5.76;100.00;101923.38;5010680;28;20421;-87
2023/01/01 00:15:08;;;;;;;93.57;69.05;;;;;;;6.28;100.00;102037.75;5010175;28;20058;-86
2023/01/01 00:17:33;;;;;;;88.75;68.53;;;;;;;5.51;100.00;101901.47;5014008;28;20046;-87
2023/01/01 00:19:58;;;;;;;68.68;41.50;;;;;;;6.06;100.00;102021.19;5006783;28;20045;-86
2023/01/01 00:22:25;;;;;;;75.00;46.05;;;;;;;4.46;100.00;101764.88;5010667;28;20033;-86
2023/01/01 00:24:50;;;;;;;80.15;67.03;;;;;;;5.27;100.00;101911.69;5007751;28;20669;-85
2023/01/01 00:27:16;;;;;;;83.22;65.57;;;;;;;6.01;100.00;102017.44;5010677;28;20058;-87
2023/01/01 00:29:41;;;;;;;67.65;43.78;;;;;;;6.07;100.00;102001.22;5008902;28;20046;-85
2023/01/01 00:32:06;;;;;;;62.45;39.42;;;;;;;5.99;100.00;102037.31;5007521;28;20509;-86
2023/01/01 00:34:32;;;;;;;100.30;72.85;;;;;;;5.87;100.00;102037.63;5015899;28;20470;-85
2023/01/01 00:36:57;;;;;;;75.57;45.40;;;;;;;5.83;100.00;102050.44;5013052;28;20516;-87
2023/01/01 00:39:23;;;;;;;95.82;66.82;;;;;;;6.10;100.00;102067.38;5007938;28;20034;-86
2023/01/01 00:41:48;;;;;;;101.05;47.83;;;;;;;5.21;100.00;101911.38;5018273;28;20038;-87
2023/01/01 00:44:14;;;;;;;112.05;72.50;;;;;;;5.91;100.00;102047.38;5010511;28;20436;-87
2023/01/01 00:46:40;;;;;;;70.95;45.55;;;;;;;5.12;100.00;101965.59;5010888;28;20057;-87
2023/01/01 00:49:05;;;;;;;65.72;40.95;;;;;;;5.21;100.00;101929.59;5010121;28;20060;-86
2023/01/01 00:51:31;;;;;;;89.93;65.53;;;;;;;5.84;100.00;102039.22;5010414;28;20046;-88
2023/01/01 00:53:57;;;;;;;79.63;62.45;;;;;;;5.54;100.00;101995.31;5014996;28;20045;-86
2023/01/01 00:56:22;;;;;;;85.05;41.08;;;;;;;5.26;100.00;101922.88;5013928;28;20609;-87
2023/01/01 00:58:48;;;;;;;66.47;41.95;;;;;;;5.35;100.00;101931.13;5031110;28;20058;-88
2023/01/01 01:01:13;;;;;;;61.90;38.08;;;;;;;6.05;100.00;102049.75;5016244;28;20131;-88
2023/01/01 01:03:39;;;;;;;63.05;39.80;;;;;;;5.36;100.00;101932.91;5010341;28;20776;-84
2023/01/01 01:06:04;;;;;;;63.40;40.10;;;;;;;6.25;100.00;102072.41;5007049;28;20053;-87
2023/01/01 01:08:32;;;;;;;84.13;58.10;;;;;;;6.26;100.00;102062.84;5011112;28;20038;-86
2023/01/01 01:11:13;;;;;;;63.85;41.75;;;;;;;5.87;100.00;101982.94;5012404;28;20053;-86
2023/01/01 01:13:40;;;;;;;57.80;36.63;;;;;;;5.35;100.00;101917.22;5008784;28;20030;-86
2023/01/01 01:16:21;;;;;;;80.07;56.80;;;;;;;5.95;100.00;102008.47;5010135;28;20096;-86
2023/01/01 01:18:50;;;;;;;57.50;40.13;;;;;;;5.77;100.00;101974.66;5010069;28;20451;-86
2023/01/01 01:21:18;;;;;;;65.03;38.97;;;;;;;5.21;100.00;101901.84;5005886;28;20133;-87
2023/01/01 01:23:44;;;;;;;84.15;59.58;;;;;;;5.58;100.00;101954.72;4992261;28;20096;-86
2023/01/01 01:26:24;;;;;;;60.55;42.25;;;;;;;5.48;100.00;101916.97;4997951;28;20073;-78
2023/01/01 01:28:52;;;;;;;75.88;57.95;;;;;;;6.00;100.00;102030.44;4995429;28;20144;-80
2023/01/01 01:31:19;;;;;;;67.32;40.20;;;;;;;5.21;100.00;101886.25;5010748;28;20196;-81
2023/01/01 01:33:46;;;;;;;63.90;36.97;;;;;;;5.64;100.00;101950.69;4994869;28;20074;-80
2023/01/01 01:36:12;;;;;;;50.28;35.78;;;;;;;6.15;100.00;102030.19;5002397;28;20124;-78
2023/01/01 01:38:39;;;;;;;54.78;36.80;;;;;;;5.46;100.00;101914.28;5004828;28;20050;-79
2023/01/01 01:41:05;;;;;;;61.88;38.10;;;;;;;6.03;100.00;102008.00;5015407;28;20148;-82
2023/01/01 01:43:33;;;;;;;54.47;35.95;;;;;;;5.90;100.00;102031.69;5001160;28;20145;-80
2023/01/01 01:46:24;;;;;;;68.68;41.53;;;;;;;6.00;100.00;102012.19;5003037;28;20209;-78
2023/01/01 01:48:51;;;;;;;87.70;60.05;;;;;;;5.95;100.00;102021.50;4993199;28;20054;-80
2023/01/01 01:51:38;;;;;;;62.55;41.13;;;;;;;5.54;100.00;101958.00;4993915;28;20053;-81
2023/01/01 01:54:09;;;;;;;60.25;37.97;;;;;;;5.94;100.00;101997.16;5002058;28;20049;-81
2023/01/01 01:56:51;;;;;;;69.13;41.45;;;;;;;5.75;100.00;101992.81;5004538;28;20054;-79
2023/01/01 01:59:19;;;;;;;61.25;40.70;;;;;;;5.68;100.00;101988.16;4998400;28;20061;-80
2023/01/01 02:01:45;;;;;;;82.45;58.80;;;;;;;4.71;100.00;101827.59;5004457;28;20057;-80
2023/01/01 02:04:11;;;;;;;63.33;41.17;;;;;;;5.74;100.00;101983.22;5003107;28;20065;-82
2023/01/01 02:06:38;;;;;;;59.55;37.05;;;;;;;5.83;100.00;101988.84;5010598;28;20135;-79
2023/01/01 02:09:06;;;;;;;89.82;62.45;;;;;;;5.57;100.00;101950.31;4998902;28;20050;-80
2023/01/01 02:11:32;;;;;;;57.25;38.90;;;;;;;5.90;100.00;101988.28;4995172;28;20088;-81
2023/01/01 02:14:00;;;;;;;61.80;37.53;;;;;;;5.13;100.00;101843.38;4999314;28;20050;-81
2023/01/01 02:16:35;;;;;;;57.08;40.15;;;;;;;5.86;100.00;101952.50;5004338;28;20490;-79
2023/01/01 02:19:29;;;;;;;65.28;40.58;;;;;;;6.08;100.00;101992.56;5004581;28;20073;-79
2023/01/01 02:22:11;;;;;;;67.78;40.30;;;;;;;5.26;100.00;101852.63;4964356;28;20133;-81
2023/01/01 02:25:09;;;;;;;66.97;39.38;;;;;;;5.52;100.00;101925.78;4997454;28;20049;-82
2023/01/01 02:28:00;;;;;;;56.80;37.35;;;;;;;5.18;100.00;101857.50;5005688;28;20056;-82
2023/01/01 02:30:30;;;;;;;67.22;38.47;;;;;;;5.88;100.00;101976.91;5005636;28;20038;-84
2023/01/01 02:33:11;;;;;;;58.08;38.45;;;;;;;5.69;100.00;101961.28;5008513;28;20060;-79
2023/01/01 02:35:42;;;;;;;56.63;37.25;;;;;;;5.84;100.00;101971.50;5012410;28;20054;-82
2023/01/01 02:38:20;;;;;;;62.67;37.85;;;;;;;5.88;100.00;101973.44;5005389;28;20045;-78
2023/01/01 02:40:50;;;;;;;67.18;39.28;;;;;;;5.84;100.00;101985.41;5004552;28;20026;-80
2023/01/01 02:43:16;;;;;;;55.42;38.53;;;;;;;5.71;100.00;101955.34;5005039;28;20062;-77
2023/01/01 02:45:41;;;;;;;56.80;38.03;;;;;;;5.57;100.00;101927.78;5009409;28;20065;-80
2023/01/01 02:48:39;;;;;;;55.20;35.78;;;;;;;5.55;100.00;101978.91;5005977;28;20065;-84
2023/01/01 02:51:10;;;;;;;52.47;35.15;;;;;;;5.19;100.00;101923.44;4993902;28;20677;-79
2023/01/01 02:53:44;;;;;;;58.17;39.78;;;;;;;4.63;100.00;101835.00;5003030;28;20049;-79
2023/01/01 02:56:32;;;;;;;57.10;36.53;;;;;;;4.04;100.00;101703.19;5004345;28;20065;-80
2023/01/01 03:02:23;;;;;;;68.63;39.78;;;;;;;5.75;100.00;101969.38;4997629;28;20045;-80
2023/01/01 03:04:57;;;;;;;;;;;;;;;5.66;100.00;101966.34;4997320;28;20033;-77
2023/01/01 03:07:47;;;;;;;68.05;35.40;;;;;;;5.52;100.00;101959.63;4998248;28;19990;-76
2023/01/01 03:10:20;;;;;;;66.88;37.00;;;;;;;4.77;100.00;101816.56;5005171;28;20520;-80
2023/01/01 03:13:23;;;;;;;71.60;36.20;;;;;;;5.64;100.00;101940.25;4997616;28;20054;-77
2023/01/01 03:16:04;;;;;;;57.58;37.13;;;;;;;4.69;100.00;101784.16;4971705;28;20046;-77
2023/01/01 03:18:43;;;;;;;70.05;43.17;;;;;;;5.04;100.00;101882.00;5005844;28;20132;-77
2023/01/01 03:21:09;;;;;;;65.18;40.65;;;;;;;5.61;100.00;101973.06;5004984;28;20054;-81
2023/01/01 03:23:39;;;;;;;76.68;42.78;;;;;;;4.81;100.00;101819.38;5002980;28;20141;-77
2023/01/01 03:26:09;;;;;;;69.88;39.72;;;;;;;4.75;100.00;101829.53;5005365;28;20046;-77
2023/01/01 03:28:44;;;;;;;57.03;37.33;;;;;;;5.23;100.00;101923.63;5011574;28;20112;-79
2023/01/01 03:31:15;;;;;;;58.72;35.42;;;;;;;5.43;100.00;101934.06;4999438;28;20092;-80
2023/01/01 03:33:46;;;;;;;56.33;35.83;;;;;;;5.28;100.00;101908.22;5001337;28;20161;-81
2023/01/01 03:36:14;;;;;;;58.70;40.08;;;;;;;4.86;100.00;101838.69;4999957;28;20064;-77
2023/01/01 03:38:47;;;;;;;65.28;38.90;;;;;;;5.50;100.00;101951.72;5000507;28;20532;-77
2023/01/01 03:41:22;;;;;;;70.47;42.47;;;;;;;5.18;100.00;101903.44;5000914;28;20045;-78
2023/01/01 03:44:04;;;;;;;61.42;39.50;;;;;;;4.85;100.00;101830.84;5005013;28;20123;-77
2023/01/01 03:46:33;;;;;;;63.25;38.67;;;;;;;5.70;100.00;101981.28;5002185;28;20185;-79
2023/01/01 03:49:00;;;;;;;60.90;39.40;;;;;;;5.81;100.00;102003.50;4998151;28;20832;-79
2023/01/01 03:51:39;;;;;;;61.00;40.92;;;;;;;5.13;100.00;101884.09;5000989;28;20329;-78
2023/01/01 03:54:21;;;;;;;70.28;36.75;;;;;;;4.77;100.00;101860.78;5006295;28;20058;-78
2023/01/01 03:57:00;;;;;;;66.57;39.90;;;;;;;5.24;100.00;101963.56;4999109;28;20595;-77
2023/01/01 03:59:38;;;;;;;67.78;39.60;;;;;;;4.91;100.00;101883.13;5001714;28;20050;-79
2023/01/01 04:02:07;;;;;;;55.22;35.38;;;;;;;5.20;100.00;101930.44;5003756;28;20492;-76
2023/01/01 04:04:34;;;;;;;69.45;39.95;;;;;;;5.68;100.00;102011.59;5008058;28;20034;-78
2023/01/01 04:07:00;;;;;;;56.10;38.13;;;;;;;5.57;100.00;101995.47;5004897;28;20528;-77
2023/01/01 04:09:30;;;;;;;67.60;37.97;;;;;;;5.45;100.00;101961.06;4997816;28;20069;-82
2023/01/01 04:12:00;;;;;;;61.10;38.75;;;;;;;5.48;100.00;101979.44;5002358;28;20137;-81
2023/01/01 04:14:38;;;;;;;63.75;41.00;;;;;;;5.02;100.00;101897.50;4999554;28;20081;-82
2023/01/01 04:17:05;;;;;;;62.60;38.38;;;;;;;5.48;100.00;101971.63;4997703;28;20413;-82
2023/01/01 04:19:31;;;;;;;53.83;36.33;;;;;;;4.98;100.00;101884.28;5000873;28;20041;-83
2023/01/01 04:21:57;;;;;;;59.92;40.67;;;;;;;5.75;100.00;102011.03;5004355;28;20114;-80
2023/01/01 04:24:23;;;;;;;56.17;40.15;;;;;;;5.46;100.00;101963.75;5006419;28;20069;-80
2023/01/01 04:26:50;;;;;;;65.20;38.03;;;;;;;4.42;100.00;101826.19;5003989;28;20141;-79
2023/01/01 04:29:16;;;;;;;53.08;37.22;;;;;;;5.73;100.00;102017.88;5009735;28;20746;-78
2023/01/01 04:31:41;;;;;;;64.90;40.47;;;;;;;5.58;100.00;101979.03;5007602;28;20048;-80
2023/01/01 04:34:07;;;;;;;68.55;40.15;;;;;;;5.13;100.00;101936.13;5004430;28;20046;-77
2023/01/01 04:36:33;;;;;;;62.25;39.05;;;;;;;5.36;100.00;101978.84;5005424;28;20052;-81
2023/01/01 04:38:59;;;;;;;72.95;42.17;;;;;;;4.80;100.00;101912.91;5007821;28;20493;-80
2023/01/01 04:41:24;;;;;;;62.90;36.20;;;;;;;4.82;100.00;101917.41;5002300;28;20056;-79
2023/01/01 04:43:49;;;;;;;58.08;37.17;;;;;;;5.25;100.00;102001.78;5006575;28;20096;-79
2023/01/01 04:46:17;;;;;;;59.53;36.33;;;;;;;4.47;100.00;101883.59;5010050;28;20045;-76
2023/01/01 04:48:43;;;;;;;59.95;38.03;;;;;;;5.45;100.00;102042.63;5007039;28;20058;-77
2023/01/01 04:51:10;;;;;;;63.70;39.45;;;;;;;5.33;100.00;102029.06;5007260;28;20053;-79
2023/01/01 04:53:36;;;;;;;55.15;38.65;;;;;;;5.39;100.00;102028.47;5011061;28;20045;-80
2023/01/01 04:56:06;;;;;;;62.70;36.03;;;;;;;4.60;100.00;101925.88;5007489;28;20482;-78
2023/01/01 04:58:36;;;;;;;64.55;38.97;;;;;;;4.39;100.00;101917.03;5009997;28;20053;-79
2023/01/01 05:01:02;;;;;;;74.65;43.05;;;;;;;5.18;100.00;102080.38;5006156;28;20375;-78
2023/01/01 05:03:28;;;;;;;52.92;39.10;;;;;;;3.86;100.00;101819.13;5006127;28;20050;-78
2023/01/01 05:06:00;;;;;;;59.35;40.65;;;;;;;5.07;100.00;102070.31;5007657;28;20107;-80
2023/01/01 05:08:28;;;;;;;68.45;41.30;;;;;;;5.02;100.00;102051.00;5002675;28;20125;-81
2023/01/01 05:10:59;;;;;;;62.85;42.83;;;;;;;4.10;100.00;101955.44;5004422;28;20058;-81
2023/01/01 05:13:25;;;;;;;66.45;41.28;;;;;;;4.26;100.00;101957.09;5002670;28;20088;-84
2023/01/01 05:15:50;;;;;;;59.10;38.25;;;;;;;4.78;100.00;102042.88;5000951;28;20896;-80
2023/01/01 05:18:16;;;;;;;59.05;43.35;;;;;;;4.10;100.00;101933.75;5005798;28;20108;-79
2023/01/01 05:20:41;;;;;;;64.82;41.92;;;;;;;4.82;100.00;102072.53;5005757;28;20046;-78
2023/01/01 05:23:06;;;;;;;56.10;38.90;;;;;;;4.60;100.00;102042.84;5001004;28;20048;-79
2023/01/01 05:25:32;;;;;;;55.60;40.15;;;;;;;4.76;100.00;102057.50;5003721;28;20038;-80
2023/01/01 05:27:57;;;;;;;73.28;44.45;;;;;;;4.59;100.00;102058.38;5005019;28;20046;-78
2023/01/01 05:30:23;;;;;;;63.65;43.38;;;;;;;4.43;100.00;102030.72;5003588;28;20137;-79
2023/01/01 05:32:48;;;;;;;65.00;40.60;;;;;;;4.46;100.00;102024.78;5000377;28;20077;-79
2023/01/01 05:35:14;;;;;;;70.88;44.30;;;;;;;3.85;100.00;101909.13;5007369;28;20050;-79
2023/01/01 05:37:39;;;;;;;64.57;41.75;;;;;;;4.80;100.00;102077.66;5011165;28;20049;-80
2023/01/01 05:40:05;;;;;;;68.60;42.42;;;;;;;4.00;100.00;101925.50;5007576;28;20188;-80
2023/01/01 05:42:31;;;;;;;65.43;42.88;;;;;;;4.64;100.00;102041.31;5002499;28;20052;-82
2023/01/01 05:44:56;;;;;;;65.47;41.13;;;;;;;4.64;100.00;102056.91;5009717;28;20045;-80
2023/01/01 05:47:22;;;;;;;71.03;42.70;;;;;;;4.18;100.00;101954.09;5008375;28;20049;-81
2023/01/01 05:49:47;;;;;;;71.80;42.83;;;;;;;4.85;100.00;102073.56;5009177;28;20026;-79
2023/01/01 05:52:12;;;;;;;54.20;40.47;;;;;;;4.02;100.00;101923.84;5012385;28;20045;-79
2023/01/01 05:54:38;;;;;;;75.20;44.33;;;;;;;4.01;100.00;101936.78;5009963;28;20520;-80
2023/01/01 05:57:03;;;;;;;61.53;41.88;;;;;;;3.54;100.00;101855.63;5009622;28;20420;-81
2023/01/01 05:59:29;;;;;;;61.60;39.47;;;;;;;3.92;100.00;101919.00;5009665;28;20041;-81
2023/01/01 06:01:54;;;;;;;71.32;41.80;;;;;;;4.55;100.00;102059.91;5015978;28;20052;-79
2023/01/01 06:04:20;;;;;;;65.10;38.75;;;;;;;4.51;100.00;102011.19;5006553;28;20041;-81
2023/01/01 06:06:45;;;;;;;53.65;37.30;;;;;;;4.70;100.00;102036.41;5006762;28;20089;-82
2023/01/01 06:09:11;;;;;;;63.78;39.20;;;;;;;3.65;100.00;101887.31;5007816;28;20049;-81
2023/01/01 06:11:36;;;;;;;62.15;39.03;;;;;;;4.68;100.00;102061.41;5004091;28;20053;-79
2023/01/01 06:14:02;;;;;;;61.13;39.28;;;;;;;4.03;100.00;101940.34;5002828;28;20542;-80
2023/01/01 06:16:30;;;;;;;64.88;43.58;;;;;;;4.74;100.00;102068.66;5007883;28;20484;-80
2023/01/01 06:18:56;;;;;;;74.57;36.65;;;;;;;4.75;100.00;102050.53;5003964;28;20042;-80
2023/01/01 06:21:25;;;;;;;62.85;39.75;;;;;;;4.09;100.00;101943.22;5011335;28;20092;-81
2023/01/01 06:23:51;;;;;;;68.15;35.60;;;;;;;4.67;100.00;102072.66;5010337;28;20060;-80
2023/01/01 06:26:19;;;;;;;65.03;42.38;;;;;;;4.91;100.00;102090.31;5013006;28;20496;-81
2023/01/01 06:28:45;;;;;;;63.85;38.67;;;;;;;4.80;100.00;102054.25;5003204;28;20045;-81
2023/01/01 06:31:13;;;;;;;61.00;38.80;;;;;;;4.27;100.00;101983.97;5007257;28;20453;-81
2023/01/01 06:33:39;;;;;;;62.83;39.58;;;;;;;4.41;100.00;101993.34;5001607;28;20065;-82
2023/01/01 06:36:07;;;;;;;64.75;40.88;;;;;;;4.02;100.00;101948.94;5005185;28;20045;-82
2023/01/01 06:38:34;;;;;;;65.38;42.38;;;;;;;4.85;100.00;102085.69;5007293;28;20598;-81
2023/01/01 06:41:02;;;;;;;60.88;39.40;;;;;;;4.67;100.00;102044.06;4998030;28;20033;-81
2023/01/01 06:43:30;;;;;;;64.50;42.40;;;;;;;4.94;100.00;102087.84;5004306;28;20113;-81
2023/01/01 06:46:03;;;;;;;61.40;37.90;;;;;;;4.09;100.00;101917.25;5008116;28;20046;-82
2023/01/01 06:48:30;;;;;;;;;;;;;;;5.10;100.00;102095.59;5005585;28;20057;-81
2023/01/01 06:50:57;;;;;;;58.40;40.47;;;;;;;4.45;100.00;101974.50;5003656;28;19948;-82
2023/01/01 06:53:26;;;;;;;67.53;39.38;;;;;;;5.05;100.00;102068.47;5001153;28;20073;-79
2023/01/01 06:55:52;;;;;;;70.82;45.70;;;;;;;4.56;100.00;101973.31;5003647;28;20049;-79
2023/01/01 06:58:18;;;;;;;75.85;40.83;;;;;;;5.36;100.00;102093.38;4995801;28;20527;-80
2023/01/01 07:00:43;;;;;;;59.67;37.83;;;;;;;5.25;100.00;102080.75;5002184;28;20521;-80
2023/01/01 07:03:09;;;;;;;69.75;39.97;;;;;;;5.25;100.00;102062.53;5003661;28;20557;-80
2023/01/01 07:05:35;;;;;;;59.28;37.67;;;;;;;5.35;100.00;102069.06;5000071;28;20079;-80
2023/01/01 07:08:01;;;;;;;73.30;39.35;;;;;;;5.53;100.00;102078.59;5004636;28;20405;-81
2023/01/01 07:10:26;;;;;;;72.00;48.25;;;;;;;5.27;100.00;102057.41;5003832;28;20418;-81
2023/01/01 07:12:51;;;;;;;58.90;42.05;;;;;;;5.36;100.00;102077.75;4995545;28;20057;-80
2023/01/01 07:15:17;;;;;;;60.72;41.50;;;;;;;5.55;100.00;102080.44;5001518;28;20524;-80
2023/01/01 07:17:42;;;;;;;61.58;38.15;;;;;;;5.65;100.00;102080.03;5012063;28;20505;-81
2023/01/01 07:20:08;;;;;;;67.47;40.08;;;;;;;5.39;100.00;102025.88;5003326;28;20721;-82
2023/01/01 07:22:36;;;;;;;76.07;38.65;;;;;;;4.95;100.00;101918.88;5009340;28;20107;-82
2023/01/01 07:25:02;;;;;;;66.93;43.90;;;;;;;4.89;100.00;101912.47;5002829;28;20140;-81
2023/01/01 07:27:27;;;;;;;59.85;38.03;;;;;;;5.21;100.00;101940.00;4999657;28;20823;-79
2023/01/01 07:29:52;;;;;;;79.65;42.85;;;;;;;5.07;100.00;101927.22;5000311;28;20456;-80
2023/01/01 07:32:18;;;;;;;73.97;41.35;;;;;;;5.49;100.00;101989.91;5003493;28;20188;-81
2023/01/01 07:34:43;;;;;;;58.95;36.33;;;;;;;6.10;100.00;102069.09;5008585;28;20060;-79
2023/01/01 07:37:09;;;;;;;63.70;40.17;;;;;;;5.34;100.00;101938.84;5004927;28;20053;-79
2023/01/01 07:39:34;;;;;;;63.13;41.70;;;;;;;6.12;100.00;102064.84;5001898;28;20695;-79
2023/01/01 07:42:00;;;;;;;62.17;39.17;;;;;;;6.27;100.00;102075.03;5003044;28;20482;-80
2023/01/01 07:44:25;;;;;;;70.72;40.28;;;;;;;5.55;100.00;101933.72;5002947;28;20054;-80
2023/01/01 07:47:01;;;;;;;65.03;40.85;;;;;;;6.18;100.00;102015.59;5007816;28;20479;-81
2023/01/01 07:49:27;;;;;;;79.82;42.47;;;;;;;5.75;100.00;101934.63;5012932;28;20128;-80
2023/01/01 07:51:52;;;;;;;59.53;38.45;;;;;;;5.79;100.00;101928.72;5007289;28;20133;-80
2023/01/01 07:54:17;;;;;;;57.47;36.50;;;;;;;5.91;100.00;101918.84;5006891;28;20064;-80
2023/01/01 07:56:43;;;;;;;59.70;37.92;;;;;;;6.00;100.00;101960.09;5005225;28;20048;-82
2023/01/01 07:59:08;;;;;;;53.65;34.13;;;;;;;6.74;100.00;102081.44;5003922;28;20485;-82
2023/01/01 08:01:35;;;;;;;76.88;57.75;;;;;;;6.13;100.00;101938.91;5008974;28;20573;-81
2023/01/01 08:04:01;;;;;;;69.40;39.42;;;;;;;6.32;100.00;101975.38;5006538;28;20576;-80
2023/01/01 08:06:26;;;;;;;73.20;55.70;;;;;;;6.06;100.00;101906.53;5004845;28;20100;-81
2023/01/01 08:08:52;;;;;;;67.65;42.78;;;;;;;6.25;100.00;101941.16;5005331;28;20518;-82
2023/01/01 08:11:18;;;;;;;57.50;38.15;;;;;;;5.66;100.00;101836.16;5007405;28;20703;-80
2023/01/01 08:13:43;;;;;;;63.28;37.55;;;;;;;7.02;100.00;102061.72;5007891;28;20033;-80
2023/01/01 08:16:08;;;;;;;80.65;57.85;;;;;;;7.16;100.00;102071.00;5005735;28;20053;-79
2023/01/01 08:18:34;;;;;;;68.50;51.53;;;;;;;7.44;100.00;102083.44;5005622;28;20501;-82
2023/01/01 08:21:00;;;;;;;60.03;39.58;;;;;;;7.03;100.00;101999.16;5006422;28;20049;-81
2023/01/01 08:23:25;;;;;;;80.85;54.25;;;;;;;6.63;100.00;101936.66;5007172;28;20478;-80
2023/01/01 08:25:51;;;;;;;84.20;55.10;;;;;;;6.85;100.00;101967.97;5006049;28;20022;-80
2023/01/01 08:28:16;;;;;;;68.30;38.70;;;;;;;7.65;100.00;102069.44;5005246;28;20034;-83
2023/01/01 08:30:42;;;;;;;73.25;55.38;;;;;;;6.49;100.00;101866.56;5010348;28;20053;-82
2023/01/01 08:33:07;;;;;;;72.18;52.45;;;;;;;7.75;100.00;102063.72;5003875;28;20045;-82
2023/01/01 08:35:36;;;;;;;85.65;55.53;;;;;;;7.90;100.00;102076.50;5007848;28;20482;-82
2023/01/01 08:38:01;;;;;;;57.45;40.47;;;;;;;8.00;100.00;102076.00;5006032;28;20037;-83
2023/01/01 08:40:27;;;;;;;79.28;51.38;;;;;;;7.77;100.00;102025.50;5005701;28;20580;-82
2023/01/01 08:42:53;;;;;;;70.20;53.75;;;;;;;7.87;100.00;102077.28;5002099;28;20925;-80
2023/01/01 08:45:18;;;;;;;79.07;56.13;;;;;;;7.26;100.00;101939.09;5005486;28;20133;-78
2023/01/01 08:47:44;;;;;;;76.05;57.33;;;;;;;7.81;100.00;102053.53;5002247;28;20085;-79
2023/01/01 08:50:09;;;;;;;78.88;53.80;;;;;;;7.76;100.00;102048.13;5002420;28;20037;-80
2023/01/01 08:52:35;;;;;;;75.63;56.42;;;;;;;7.40;100.00;101954.47;5001490;28;20112;-80
2023/01/01 08:55:00;;;;;;;68.03;50.47;;;;;;;8.21;100.00;102062.84;5003906;28;20046;-78
2023/01/01 08:57:29;;;;;;;79.18;52.60;;;;;;;8.26;100.00;102074.34;4998153;28;20485;-78
2023/01/01 08:59:55;;;;;;;74.75;52.97;;;;;;;8.15;100.00;102040.00;5007943;28;20118;-85
2023/01/01 09:02:20;;;;;;;75.47;56.75;;;;;;;7.21;100.00;101870.16;4998047;28;20604;-77
2023/01/01 09:04:45;;;;;;;75.22;57.08;;;;;;;8.23;100.00;102037.66;5004020;28;20484;-81
2023/01/01 09:07:11;;;;;;;73.25;52.05;;;;;;;8.04;100.00;101996.88;5003525;28;20405;-80
2023/01/01 09:09:36;;;;;;;64.70;50.20;;;;;;;7.82;100.00;101930.78;5005143;28;20412;-79
2023/01/01 09:12:04;;;;;;;74.53;52.42;;;;;;;8.06;100.00;101968.19;4983856;28;20106;-81
2023/01/01 09:14:31;;;;;;;73.50;52.67;;;;;;;8.59;100.00;102051.16;4998099;28;20422;-78
2023/01/01 09:16:56;;;;;;;75.57;53.58;;;;;;;8.68;100.00;102063.66;4986929;28;20117;-77
2023/01/01 09:19:22;;;;;;;72.30;52.00;;;;;;;8.79;100.00;102064.03;5000103;28;20641;-79
2023/01/01 09:21:47;;;;;;;69.57;53.05;;;;;;;7.66;100.00;101857.03;4999533;28;20050;-79
2023/01/01 09:24:13;;;;;;;77.97;54.08;;;;;;;8.76;100.00;102028.19;4998008;28;20593;-79
2023/01/01 09:26:38;;;;;;;81.60;53.72;;;;;;;8.32;100.00;101941.22;4995993;28;20046;-79
2023/01/01 09:29:03;;;;;;;75.47;51.97;;;;;;;8.76;100.00;101982.81;4995595;28;20100;-80
2023/01/01 09:31:29;;;;;;;76.28;53.97;;;;;;;9.04;100.00;102021.25;5003059;28;20030;-79
2023/01/01 09:33:54;;;;;;;71.50;51.80;;;;;;;9.04;100.00;102016.00;5000594;28;20493;-79
2023/01/01 09:36:20;;;;;;;75.72;55.75;;;;;;;9.20;100.00;102056.66;4996849;28;20053;-79
2023/01/01 09:38:52;;;;;;;79.45;52.42;;;;;;;9.18;100.00;102003.34;4999648;28;20522;-79
2023/01/01 09:41:34;;;;;;;73.47;54.05;;;;;;;9.28;100.00;102006.28;4992657;28;20066;-78
2023/01/01 09:44:04;;;;;;;73.82;52.80;;;;;;;9.59;100.00;102035.16;4995319;28;20044;-79
2023/01/01 09:46:29;;;;;;;78.25;54.63;;;;;;;8.27;100.00;101800.69;5000835;28;20494;-80
2023/01/01 09:49:00;;;;;;;85.90;57.05;;;;;;;9.16;100.00;101927.34;4997658;28;20060;-80
2023/01/01 09:51:30;;;;;;;74.55;54.90;;;;;;;9.23;100.00;101960.75;5001451;28;20153;-79
2023/01/01 09:54:03;;;;;;;73.43;54.75;;;;;;;9.12;100.00;101919.34;5001167;28;20065;-79
2023/01/01 09:56:30;;;;;;;75.40;57.13;;;;;;;9.80;100.00;102029.66;5004220;28;20073;-79
2023/01/01 09:58:58;;;;;;;69.45;52.55;;;;;;;9.23;100.00;101921.44;5002188;28;20064;-79
2023/01/01 10:01:51;;;;;;;77.40;55.80;;;;;;;9.93;100.00;102029.19;5005178;28;20030;-79
2023/01/01 10:04:46;;;;;;;81.80;53.33;;;;;;;10.15;100.00;102025.41;5001999;28;20192;-79
2023/01/01 10:07:31;;;;;;;79.18;54.22;;;;;;;10.25;100.00;102019.56;4979431;28;20050;-79
2023/01/01 10:10:02;;;;;;;70.43;52.00;;;;;;;10.34;100.00;102029.47;5004184;28;20058;-78
2023/01/01 10:12:49;;;;;;;72.80;52.92;;;;;;;10.47;100.00;102030.69;5000894;28;20073;-79
2023/01/01 10:15:22;;;;;;;83.00;55.17;;;;;;;10.31;100.00;101990.03;4998280;28;20112;-80
2023/01/01 10:17:57;;;;;;;68.57;47.75;;;;;;;10.45;100.00;101967.66;5004139;28;20077;-79
2023/01/01 10:20:30;;;;;;;73.80;50.28;;;;;;;10.41;100.00;101993.78;5003652;28;20073;-78
2023/01/01 10:23:02;;;;;;;;;;;;;;;10.67;100.00;102003.22;5003136;28;20030;-77
2023/01/01 10:25:31;;;;;;;89.05;49.33;;;;;;;10.08;100.00;101876.59;5003157;28;19921;-78
2023/01/01 10:28:05;;;;;;;63.08;48.40;;;;;;;10.11;100.00;101869.72;5000875;28;20058;-79
2023/01/01 10:30:31;;;;;;;62.13;45.58;;;;;;;10.40;100.00;101882.69;4997067;28;20200;-80
2023/01/01 10:32:57;;;;;;;58.85;42.47;;;;;;;11.16;100.00;101974.63;4993681;28;20414;-79
2023/01/01 10:35:30;;;;;;;59.65;45.40;;;;;;;10.26;100.00;101813.25;4997883;28;20061;-78
2023/01/01 10:37:58;;;;;;;66.90;45.17;;;;;;;10.95;100.00;101920.72;5013831;28;20485;-79
2023/01/01 10:40:25;;;;;;;63.65;43.22;;;;;;;11.34;100.00;101954.00;5004644;28;20042;-78
2023/01/01 10:42:53;;;;;;;65.63;45.33;;;;;;;11.63;100.00;101953.72;5000257;28;20038;-77
2023/01/01 10:45:31;;;;;;;56.35;42.75;;;;;;;11.88;100.00;101952.53;5001773;28;20042;-80
2023/01/01 10:48:13;;;;;;;57.28;40.17;;;;;;;12.29;100.00;101965.56;5001815;28;20049;-80
2023/01/01 10:50:55;;;;;;;63.63;42.63;;;;;;;12.10;100.00;101959.06;5005709;28;20050;-80
2023/01/01 10:53:23;;;;;;;64.28;43.55;;;;;;;11.78;100.00;101863.75;5000041;28;20120;-80
2023/01/01 10:55:50;;;;;;;64.07;42.47;;;;;;;12.17;100.00;101852.19;5002350;28;20452;-77
2023/01/01 10:58:53;;;;;;;62.70;43.83;;;;;;;13.17;100.00;101959.06;4990905;28;20065;-80
2023/01/01 11:01:26;;;;;;;59.50;42.13;;;;;;;13.41;100.00;101963.81;4991998;28;20104;-78
2023/01/01 11:04:00;;;;;;;66.22;44.97;;;;;;;12.99;100.00;101844.63;4999254;28;20096;-80
2023/01/01 11:06:25;;;;;;;55.10;42.15;;;;;;;13.08;100.00;101957.19;4995690;28;20208;-79
2023/01/01 11:08:54;;;;;;;56.60;41.83;;;;;;;13.25;100.00;101846.69;5004341;28;20511;-82
2023/01/01 11:11:31;;;;;;;56.72;43.15;;;;;;;13.66;100.00;101846.31;5007855;28;20050;-78
2023/01/01 11:14:07;;;;;;;61.80;44.78;;;;;;;14.04;100.00;101917.94;4997946;28;20053;-77
2023/01/01 11:16:38;;;;;;;66.22;42.50;;;;;;;14.15;100.00;101936.53;5028104;28;20042;-78
2023/01/01 11:19:06;;;;;;;70.82;47.47;;;;;;;13.42;100.00;101815.31;5000145;28;20120;-78
2023/01/01 11:21:33;;;;;;;61.55;46.63;;;;;;;13.29;100.00;101896.88;5005387;28;20046;-81
2023/01/01 11:24:20;;;;;;;58.97;43.42;;;;;;;13.21;100.00;101892.34;5003332;28;20049;-78